Список аэропортов
Фактическая погода:

19 августа, 04:50
Температура: +17°C (+16.6*)
Ветер: юго-восточный 4 м/с
Давление: *754 мм
несуществ. обл. слаб. дождь
Время (МСК)Темп. СВетерВлажностьДавлениеОблачностьОсадки
03:00+16ЮВ, 3 м/с84%1008 гПаоблачнодождь
04:00+16ЮВ, 3 м/с91%1007 гПаоблачнодождь
05:00+16ЮВ, 3 м/с91%1006 гПаоблачносл. дождь
06:00+15ЮВ, 3 м/с92%1006 гПаоблачнодождь
07:00+16ЮВ, 3 м/с93%1006 гПаоблачнодождь
08:00+16ЮВ, 3 м/с94%1005 гПаоблачнодождь
09:00+16ЮВ, 3 м/с95%1005 гПаоблачнодождь
10:00+16ЮВ, 3 м/с95%1005 гПаоблачнодождь
11:00+16Ю, 3 м/с96%1005 гПаоблачно
12:00+17Ю, 3 м/с97%1005 гПаоблачно
13:00+18Ю, 3 м/с96%1006 гПаоблачно
14:00+19Ю, 4 м/с91%1006 гПас прояснениями
15:00+22Ю, 4 м/с70%1006 гПаоблачно
16:00+23Ю, 5 м/с58%1007 гПас прояснениями
17:00+22ЮЗ, 5 м/с59%1008 гПас прояснениями
18:00+21ЮЗ, 4 м/с60%1008 гПаоблачно
19:00+20ЮЗ, 4 м/с61%1009 гПаоблачно
20:00+19ЮЗ, 4 м/с67%1009 гПаоблачно
21:00+17ЮЗ, 3 м/с74%1010 гПаоблачно
22:00+16ЮЗ, 3 м/с77%1010 гПаоблачно
23:00+16ЮЗ, 2 м/с80%1011 гПамалооблачно
20 августа
00:00+14ЮЗ, 2 м/с88%1011 гПаясно
01:00+13Ю, 1 м/с97%1012 гПаясно
02:00+12Ю, 1 м/с98%1012 гПаясно
03:00+11ЮВ, 1 м/с99%1012 гПамалооблачно
04:00+11Ю, 1 м/с100%1012 гПас прояснениями
05:00+12Ю, 2 м/с99%1013 гПас прояснениями
06:00+13Ю, 2 м/с99%1013 гПас прояснениями
07:00+14Ю, 2 м/с99%1013 гПас прояснениями
08:00+16Ю, 3 м/с97%1013 гПас прояснениями
09:00+17Ю, 3 м/с91%1014 гПас прояснениями
10:00+19Ю, 4 м/с75%1014 гПас прояснениямидождь
11:00+17Ю, 4 м/с91%1014 гПаоблачнодождь
12:00+17Ю, 4 м/с95%1014 гПаоблачнодождь
13:00+18Ю, 4 м/с94%1014 гПаоблачнодождь
14:00+17Ю, 4 м/с93%1015 гПас прояснениямисл. дождь
15:00+18ЮЗ, 4 м/с84%1015 гПас прояснениями
16:00+19ЮЗ, 5 м/с67%1016 гПаоблачно
17:00+20ЮЗ, 5 м/с62%1016 гПас прояснениями
18:00+18ЮЗ, 4 м/с66%1017 гПаоблачно
19:00+18Ю, 4 м/с70%1017 гПаоблачно
20:00+18Ю, 4 м/с73%1017 гПаоблачно
21:00+17ЮЗ, 4 м/с72%1017 гПас прояснениями
22:00+16ЮЗ, 3 м/с78%1018 гПас прояснениями
23:00+16Ю, 3 м/с80%1018 гПаоблачно
21 августа
00:00+16ЮЗ, 3 м/с82%1019 гПас прояснениями
01:00+16Ю, 2 м/с85%1019 гПас прояснениями
02:00+16Ю, 2 м/с86%1019 гПас прояснениями
03:00+15Ю, 2 м/с91%1019 гПас прояснениями